METAR Data
IDs: Format: Raw Decoded Include TAF

Data at: 1243 UTC 16 Aug 2022

KEMT 160245Z 22006KT 10SM CLR 27/13 A2980
KEMT 160145Z 22007KT 10SM CLR 29/13 A2979
KEMT 160047Z 20011KT 10SM CLR 32/14 A2977
KEMT 152355Z 20011KT 10SM CLR 33/13 A2977
KEMT 152245Z 20010G14KT 10SM CLR 33/15 A2978
KEMT 152145Z 19010G14KT 10SM CLR 35/15 A2980
KEMT 152045Z 18008KT 10SM CLR 34/13 A2981
KEMT 151945Z 21005KT 10SM CLR 33/14 A2983
KEMT 151845Z 22006KT 10SM CLR 30/14 A2985
KEMT 151750Z 22004KT 10SM CLR 28/14 A2985
KEMT 151645Z 21004KT 10SM CLR 26/15 A2986
KEMT 151545Z 00000KT 10SM CLR 24/14 A2986
KEMT 151445Z 00000KT 10SM CLR 22/14 A2985
KEMT 150245Z 19008KT 10SM CLR 28/10 A2984
KEMT 150145Z 24007KT 10SM CLR 30/11 A2984
KEMT 150045Z 23008KT 10SM CLR 32/12 A2984